»·PEaware :: N8BD KSMX-KRAL

N8BD :: KSMX-KRAL

FLIGHT INFORMATION

Flight Status: Arrived
Operator: Privately registered:
United States
More flights under this callsign
Pilot: Anonymous 26385 (26385)
Aircraft: Unknown
(KODI)
More flights by this aircraft type
Origin: KSMX Santa Maria Pub/Capt Hancock
United States
Destination: KRAL Riverside Mun
United States
More flights between these airports :: More routes between these airports
Route: RZS V186 PDZ
File this flight plan on PilotEdge
Remarks: SBAP51
Altitude:
(Current/Filed)
7,000ft
Speed:
(Current/Filed)
140kts
Departed: 02-Dec-19 02:46 PM
Arrived: 02-Dec-19 03:49 PM
Distance/Time
Traveled:
160nm/1:03
Distance/Time
To Go:
Arrived

Flight Plot

Page will automatically refresh every two minutes.


Map Options




Map Legend


Flown Route
Filed Route
Departure Airport
Arrival Airport
Navaid (VOR, NDB)
Fix

Horizontal Profiles

Position Reports

Time Latitude Longitude Heading Altitude Ground
Speed
02-Dec-19 14:26 34.907172 -120.458294 134 266ft 0kts
02-Dec-19 14:27 34.907172 -120.458294 134 266ft 0kts
02-Dec-19 14:28 34.907172 -120.458294 134 266ft 0kts
02-Dec-19 14:29 34.907172 -120.458294 134 266ft 0kts
02-Dec-19 14:30 34.907172 -120.458294 134 266ft 0kts
02-Dec-19 14:32 34.907172 -120.458294 134 266ft 0kts
02-Dec-19 14:33 34.907172 -120.458294 134 266ft 0kts
02-Dec-19 14:34 34.907172 -120.458294 134 266ft 0kts
02-Dec-19 14:35 34.906621 -120.458160 232 266ft 11kts
02-Dec-19 14:36 34.906249 -120.458664 225 266ft 0kts
02-Dec-19 14:37 34.906249 -120.458664 225 266ft 0kts
02-Dec-19 14:38 34.906249 -120.458664 225 266ft 0kts
02-Dec-19 14:39 34.906249 -120.458664 225 266ft 0kts
02-Dec-19 14:40 34.906249 -120.458664 225 266ft 0kts
02-Dec-19 14:41 34.905081 -120.458089 134 266ft 17kts
02-Dec-19 14:42 34.900300 -120.452336 136 266ft 26kts
02-Dec-19 14:43 34.894996 -120.446045 135 266ft 26kts
02-Dec-19 14:44 34.893442 -120.445215 180 266ft 0kts
02-Dec-19 14:45 34.903332 -120.458604 312 575ft 104kts
02-Dec-19 14:46 34.900091 -120.477751 144 1936ft 88kts
02-Dec-19 14:47 34.885836 -120.449748 121 3092ft 106kts
02-Dec-19 14:48 34.870376 -120.417330 121 4294ft 115kts
02-Dec-19 14:49 34.854917 -120.382605 121 5487ft 117kts
02-Dec-19 14:50 34.840273 -120.347381 121 6666ft 117kts
02-Dec-19 14:51 34.823044 -120.306543 121 7010ft 160kts
02-Dec-19 14:52 34.801467 -120.256650 122 6994ft 167kts
02-Dec-19 14:53 34.779753 -120.206328 121 6985ft 167kts
02-Dec-19 14:54 34.753869 -120.159878 130 6980ft 167kts
02-Dec-19 14:55 34.725235 -120.113992 131 6975ft 171kts
02-Dec-19 14:56 34.696310 -120.067740 131 6972ft 172kts
02-Dec-19 14:57 34.667334 -120.021482 131 6973ft 172kts
02-Dec-19 14:58 34.638390 -119.975369 129 7000ft 172kts
02-Dec-19 14:59 34.609178 -119.928832 129 6999ft 173kts
02-Dec-19 15:00 34.579856 -119.882195 129 6999ft 173kts
02-Dec-19 15:01 34.550477 -119.835538 129 6981ft 174kts
02-Dec-19 15:02 34.520988 -119.788767 129 6981ft 174kts
02-Dec-19 15:03 34.493437 -119.740738 125 7000ft 174kts
02-Dec-19 15:04 34.466650 -119.691441 125 6999ft 175kts
02-Dec-19 15:05 34.439943 -119.642263 125 6999ft 175kts
02-Dec-19 15:06 34.413107 -119.592901 125 7005ft 175kts
02-Dec-19 15:07 34.386168 -119.543471 125 7002ft 176kts
02-Dec-19 15:08 34.359302 -119.494151 125 6999ft 175kts
02-Dec-19 15:09 34.332596 -119.445193 125 6999ft 174kts
02-Dec-19 15:10 34.320461 -119.389181 90 7000ft 181kts
02-Dec-19 15:11 34.323570 -119.331293 87 6998ft 181kts
02-Dec-19 15:12 34.327665 -119.275378 87 6989ft 181kts
02-Dec-19 15:13 34.332310 -119.213571 87 6989ft 180kts
02-Dec-19 15:14 34.336857 -119.153071 87 6989ft 180kts
02-Dec-19 15:15 34.341368 -119.092476 87 6989ft 180kts
02-Dec-19 15:16 34.345825 -119.032233 86 6980ft 180kts
02-Dec-19 15:17 34.350254 -118.972052 87 6981ft 179kts
02-Dec-19 15:18 34.354637 -118.912083 87 6980ft 179kts
02-Dec-19 15:19 34.346797 -118.854411 112 6980ft 174kts
02-Dec-19 15:20 34.329160 -118.800115 114 6999ft 173kts
02-Dec-19 15:21 34.310895 -118.746298 114 7000ft 173kts
02-Dec-19 15:22 34.292463 -118.692259 114 6999ft 173kts
02-Dec-19 15:23 34.274082 -118.638627 113 6999ft 173kts
02-Dec-19 15:24 34.255761 -118.585135 114 6998ft 173kts
02-Dec-19 15:25 34.237324 -118.531423 114 6989ft 173kts
02-Dec-19 15:26 34.219693 -118.478180 112 6997ft 173kts
02-Dec-19 15:27 34.203339 -118.424503 112 6995ft 172kts
02-Dec-19 15:28 34.187728 -118.373032 112 7055ft 170kts
02-Dec-19 15:29 34.172828 -118.324017 112 7049ft 171kts
02-Dec-19 15:30 34.156452 -118.270226 112 7043ft 171kts
02-Dec-19 15:31 34.140303 -118.217274 112 6994ft 173kts
02-Dec-19 15:32 34.123748 -118.163123 112 6994ft 172kts
02-Dec-19 15:33 34.107290 -118.109274 112 7027ft 170kts
02-Dec-19 15:34 34.090847 -118.055618 112 7019ft 171kts
02-Dec-19 15:35 34.074294 -118.001887 112 7011ft 171kts
02-Dec-19 15:36 34.057712 -117.948238 112 7006ft 171kts
02-Dec-19 15:37 34.041131 -117.894395 112 7002ft 171kts
02-Dec-19 15:38 34.024479 -117.840532 112 6999ft 172kts
02-Dec-19 15:39 34.007805 -117.786752 112 6998ft 172kts
02-Dec-19 15:40 33.990152 -117.733306 114 6997ft 171kts
02-Dec-19 15:41 33.971543 -117.680419 115 6997ft 171kts
02-Dec-19 15:42 33.966452 -117.621563 91 6390ft 188kts
02-Dec-19 15:43 33.966941 -117.558949 91 5563ft 187kts
02-Dec-19 15:44 33.967635 -117.496857 80 4614ft 184kts
02-Dec-19 15:45 33.971230 -117.442126 85 2859ft 154kts
02-Dec-19 15:46 33.961041 -117.407157 187 1999ft 90kts
02-Dec-19 15:47 33.949011 -117.426361 278 1024ft 82kts
02-Dec-19 15:48 33.950899 -117.440004 201 800ft 0kts
02-Dec-19 15:49 33.950697 -117.443207 138 782ft 18kts
02-Dec-19 15:50 33.950086 -117.442565 303 784ft 0kts
02-Dec-19 15:51 33.950086 -117.442565 303 784ft 0kts
02-Dec-19 15:52 33.950086 -117.442565 303 784ft 0kts
02-Dec-19 15:53 33.950086 -117.442565 303 784ft 0kts
02-Dec-19 15:54 33.950086 -117.442565 303 784ft 0kts
02-Dec-19 15:55 33.950086 -117.442565 303 784ft 0kts
02-Dec-19 15:56 33.950086 -117.442565 303 784ft 0kts
02-Dec-19 15:57 33.950086 -117.442565 303 784ft 0kts
02-Dec-19 15:58 33.950086 -117.442565 303 784ft 0kts
02-Dec-19 15:59 33.950086 -117.442565 303 784ft 0kts
02-Dec-19 16:00 33.950086 -117.442565 303 784ft 0kts
02-Dec-19 16:01 33.950086 -117.442565 303 784ft 0kts
02-Dec-19 16:03 33.950086 -117.442565 303 784ft 0kts

Navigation Log

Ident Type
Flight plan parsing failed, navigation log unavailable